createdAt,value
2017-02-02T00:00:08.989Z,70.43
2017-02-02T00:01:08.998Z,70.34
2017-02-02T00:02:09.011Z,70.34
2017-02-02T00:03:09.021Z,70.24
2017-02-02T00:04:09.033Z,70.34
2017-02-02T00:05:09.038Z,69.96
2017-02-02T00:06:09.046Z,70.15
2017-02-02T00:07:09.063Z,70.05
2017-02-02T00:08:09.066Z,70.15
2017-02-02T00:09:09.094Z,70.62
2017-02-02T00:10:09.097Z,70.53
2017-02-02T00:11:09.105Z,70.53
2017-02-02T00:12:08.720Z,70.05
2017-02-02T00:13:09.120Z,70.05
2017-02-02T00:14:08.738Z,70.24
2017-02-02T00:15:09.150Z,70.43
2017-02-02T00:16:09.163Z,69.96
2017-02-02T00:17:09.164Z,69.96
2017-02-02T00:18:09.175Z,69.96
2017-02-02T00:19:09.184Z,70.05
2017-02-02T00:20:08.797Z,70.05
2017-02-02T00:21:09.204Z,69.96
2017-02-02T00:22:09.214Z,70.24
2017-02-02T00:23:09.229Z,70.24
2017-02-02T00:24:09.237Z,69.96
2017-02-02T00:25:09.250Z,70.24
2017-02-02T00:26:09.261Z,70.53
2017-02-02T00:27:09.270Z,70.05
2017-02-02T00:28:09.280Z,70.15
2017-02-02T00:29:09.291Z,70.53
2017-02-02T00:30:08.908Z,70.24
2017-02-02T00:31:09.311Z,70.24
2017-02-02T00:32:09.321Z,70.24
2017-02-02T00:33:09.334Z,70.24
2017-02-02T00:34:09.345Z,70.53
2017-02-02T00:35:08.966Z,69.96
2017-02-02T00:36:09.364Z,70.05
2017-02-02T00:37:09.408Z,70.15
2017-02-02T00:38:09.385Z,70.05
2017-02-02T00:39:09.402Z,70.05
2017-02-02T00:40:09.407Z,70.24
2017-02-02T00:41:09.417Z,70.05
2017-02-02T00:42:09.580Z,70.24
2017-02-02T00:43:09.440Z,70.34
2017-02-02T00:44:09.447Z,70.34
2017-02-02T00:45:09.468Z,70.34
2017-02-02T00:46:09.472Z,69.96
2017-02-02T00:47:09.484Z,70.24
2017-02-02T00:48:09.496Z,70.15
2017-02-02T00:49:09.505Z,69.86
2017-02-02T00:50:09.121Z,70.34
2017-02-02T00:51:09.523Z,70.05
2017-02-02T00:52:09.538Z,70.24
2017-02-02T00:53:09.543Z,70.34
2017-02-02T00:54:09.555Z,69.96
2017-02-02T00:55:09.565Z,70.15
2017-02-02T00:56:09.576Z,70.24
2017-02-02T00:57:09.590Z,70.24
2017-02-02T00:58:09.598Z,70.15
2017-02-02T00:59:09.603Z,70.53
2017-02-02T01:00:09.618Z,70.24
2017-02-02T01:01:09.627Z,70.15
2017-02-02T01:02:09.241Z,70.53
2017-02-02T01:03:09.646Z,70.05
2017-02-02T01:04:09.267Z,70.24
2017-02-02T01:05:09.667Z,70.15
2017-02-02T01:06:09.679Z,70.62
2017-02-02T01:07:09.737Z,70.15
2017-02-02T01:08:09.701Z,70.24
2017-02-02T01:09:09.709Z,70.15
2017-02-02T01:10:09.324Z,70.15
2017-02-02T01:11:09.731Z,70.15
2017-02-02T01:12:09.744Z,70.24
2017-02-02T01:13:09.363Z,70.15
2017-02-02T01:14:09.767Z,70.05
2017-02-02T01:15:09.771Z,69.96
2017-02-02T01:16:09.781Z,70.05
2017-02-02T01:17:09.395Z,70.24
2017-02-02T01:18:09.811Z,70.24
2017-02-02T01:19:09.814Z,70.24
2017-02-02T01:20:09.825Z,69.96
2017-02-02T01:21:09.436Z,70.3
2017-02-02T01:22:09.846Z,70.43
2017-02-02T01:23:09.863Z,70.24
2017-02-02T01:24:09.470Z,70.43
2017-02-02T01:25:09.877Z,70.24
2017-02-02T01:26:09.886Z,70.11
2017-02-02T01:27:09.905Z,70.15
2017-02-02T01:28:09.906Z,70.15
2017-02-02T01:29:09.917Z,70.53
2017-02-02T01:30:09.928Z,70.43
2017-02-02T01:31:09.940Z,70.34
2017-02-02T01:32:09.951Z,70.34
2017-02-02T01:33:09.959Z,70.24
2017-02-02T01:34:09.967Z,70.49
2017-02-02T01:35:09.978Z,70.49
2017-02-02T01:36:09.991Z,70.2
2017-02-02T01:37:09.655Z,70.34
2017-02-02T01:38:10.014Z,70.2
2017-02-02T01:39:10.019Z,70.39
2017-02-02T01:40:10.030Z,70.39
2017-02-02T01:41:10.047Z,70.39
2017-02-02T01:42:09.705Z,70.2
2017-02-02T01:43:10.060Z,70.39
2017-02-02T01:44:10.078Z,70.2
2017-02-02T01:45:10.085Z,69.92
2017-02-02T01:46:10.094Z,70.11
2017-02-02T01:47:10.108Z,70.11
2017-02-02T01:48:10.119Z,70.15
2017-02-02T01:49:10.129Z,70.3
2017-02-02T01:50:10.132Z,69.92
2017-02-02T01:51:10.140Z,70.01
2017-02-02T01:52:10.150Z,70.2
2017-02-02T01:53:09.764Z,70.39
2017-02-02T01:54:10.170Z,70.2
2017-02-02T01:55:10.181Z,70.39
2017-02-02T01:56:09.796Z,70.3
2017-02-02T01:57:10.203Z,70.2
2017-02-02T01:58:10.214Z,70.2
2017-02-02T01:59:09.825Z,70.3
2017-02-02T02:00:10.235Z,70.39
2017-02-02T02:01:09.849Z,70.11
2017-02-02T02:02:10.255Z,70.39
2017-02-02T02:03:10.263Z,70.39
2017-02-02T02:04:09.879Z,70.2
2017-02-02T02:05:10.309Z,70.3
2017-02-02T02:06:10.294Z,70.39
2017-02-02T02:07:10.306Z,70.2
2017-02-02T02:08:10.311Z,70.39
2017-02-02T02:09:10.321Z,70.3
2017-02-02T02:10:09.937Z,70.39
2017-02-02T02:11:10.344Z,70.39
2017-02-02T02:12:10.355Z,70.3
2017-02-02T02:13:10.365Z,70.39
2017-02-02T02:14:09.979Z,70.2
2017-02-02T02:15:10.385Z,70.3
2017-02-02T02:16:10.025Z,69.92
2017-02-02T02:17:10.009Z,70.01
2017-02-02T02:18:10.419Z,70.3
2017-02-02T02:19:10.435Z,70.11
2017-02-02T02:20:10.451Z,70.39
2017-02-02T02:21:10.050Z,70.49
2017-02-02T02:22:10.069Z,70.11
2017-02-02T02:23:10.070Z,70.11
2017-02-02T02:24:10.482Z,70.2
2017-02-02T02:25:10.489Z,70.2
2017-02-02T02:26:10.106Z,70.3
2017-02-02T02:27:10.119Z,70.39
2017-02-02T02:28:10.521Z,70.11
2017-02-02T02:29:10.136Z,70.39
2017-02-02T02:30:10.541Z,70.3
2017-02-02T02:31:10.155Z,70.3
2017-02-02T02:32:10.161Z,70.2
2017-02-02T02:33:10.576Z,70.39
2017-02-02T02:34:10.182Z,70.3
2017-02-02T02:35:10.589Z,70.39
2017-02-02T02:36:10.599Z,70.11
2017-02-02T02:37:10.215Z,70.11
2017-02-02T02:38:10.625Z,70.58
2017-02-02T02:39:10.632Z,70.2
2017-02-02T02:40:10.244Z,70.3
2017-02-02T02:41:10.651Z,70.3
2017-02-02T02:42:10.264Z,70.39
2017-02-02T02:43:10.677Z,70.2
2017-02-02T02:44:10.682Z,70.2
2017-02-02T02:45:10.293Z,70.39
2017-02-02T02:46:10.704Z,70.2
2017-02-02T02:47:10.709Z,70.2
2017-02-02T02:48:10.721Z,70.39
2017-02-02T02:49:10.730Z,70.39
2017-02-02T02:50:10.347Z,70.3
2017-02-02T02:51:10.364Z,70.3
2017-02-02T02:52:10.761Z,70.3
2017-02-02T02:53:10.380Z,70.3
2017-02-02T02:54:10.383Z,70.3
2017-02-02T02:55:10.792Z,70.3
2017-02-02T02:56:10.405Z,70.39
2017-02-02T02:57:10.816Z,70.39
2017-02-02T02:58:10.426Z,70.3
2017-02-02T02:59:10.830Z,70.39
2017-02-02T03:00:10.851Z,70.39
2017-02-02T03:01:10.850Z,70.39
2017-02-02T03:02:10.874Z,70.39
2017-02-02T03:03:10.873Z,70.11
2017-02-02T03:04:10.877Z,70.2
2017-02-02T03:05:10.897Z,70.2
2017-02-02T03:06:10.505Z,70.3
2017-02-02T03:07:10.920Z,70.39
2017-02-02T03:08:10.525Z,70.3
2017-02-02T03:09:10.537Z,70.11
2017-02-02T03:10:10.951Z,70.11
2017-02-02T03:11:10.555Z,70.2
2017-02-02T03:12:11.120Z,70.3
2017-02-02T03:13:10.974Z,70.2
2017-02-02T03:14:10.981Z,70.39
2017-02-02T03:15:10.599Z,70.3
2017-02-02T03:16:11.001Z,70.2
2017-02-02T03:17:10.621Z,70.11
2017-02-02T03:18:11.021Z,70.2
2017-02-02T03:19:10.637Z,70.2
2017-02-02T03:20:10.652Z,70.39
2017-02-02T03:21:11.054Z,70.2
2017-02-02T03:22:11.061Z,70.01
2017-02-02T03:23:11.075Z,70.11
2017-02-02T03:24:11.089Z,70.49
2017-02-02T03:25:11.101Z,70.2
2017-02-02T03:26:11.105Z,70.3
2017-02-02T03:27:11.119Z,70.2
2017-02-02T03:28:11.128Z,70.3
2017-02-02T03:29:11.135Z,70.39
2017-02-02T03:30:10.745Z,70.11
2017-02-02T03:31:11.156Z,69.92
2017-02-02T03:32:11.166Z,70.2
2017-02-02T03:33:11.171Z,69.92
2017-02-02T03:34:11.190Z,70.01
2017-02-02T03:35:11.195Z,70.39
2017-02-02T03:36:11.198Z,70.11
2017-02-02T03:37:11.222Z,70.01
2017-02-02T03:38:10.827Z,70.11
2017-02-02T03:39:11.238Z,70.11
2017-02-02T03:40:11.241Z,70.2
2017-02-02T03:41:11.248Z,70.11
2017-02-02T03:42:10.874Z,70.01
2017-02-02T03:43:11.270Z,70.01
2017-02-02T03:44:11.279Z,70.2
2017-02-02T03:45:11.292Z,70.01
2017-02-02T03:46:10.908Z,70.2
2017-02-02T03:47:11.307Z,70.2
2017-02-02T03:48:11.325Z,70.2
2017-02-02T03:49:11.333Z,70.2
2017-02-02T03:50:10.942Z,70.11
2017-02-02T03:51:10.954Z,70.2
2017-02-02T03:52:10.965Z,70.2
2017-02-02T03:53:11.372Z,70.01
2017-02-02T03:54:11.380Z,69.92
2017-02-02T03:55:11.390Z,69.92
2017-02-02T03:56:11.400Z,70.11
2017-02-02T03:57:11.013Z,70.01
2017-02-02T03:58:11.028Z,70.39
2017-02-02T03:59:11.429Z,70.39
2017-02-02T04:00:11.072Z,70.3
2017-02-02T04:01:11.446Z,70.36
2017-02-02T04:02:11.452Z,70.2
2017-02-02T04:03:11.464Z,70.2
2017-02-02T04:04:11.474Z,70.2
2017-02-02T04:05:11.483Z,70.2
2017-02-02T04:06:11.101Z,70.68
2017-02-02T04:07:11.507Z,70.3
2017-02-02T04:08:11.512Z,70.11
2017-02-02T04:09:11.523Z,70.11
2017-02-02T04:10:11.166Z,70.39
2017-02-02T04:11:11.547Z,70.39
2017-02-02T04:12:11.555Z,70.39
2017-02-02T04:13:11.561Z,70.39
2017-02-02T04:14:11.580Z,70.07
2017-02-02T04:15:11.592Z,70.17
2017-02-02T04:16:11.590Z,70.2
2017-02-02T04:17:11.602Z,70.26
2017-02-02T04:18:11.223Z,70.3
2017-02-02T04:19:11.620Z,70.2
2017-02-02T04:20:11.630Z,70.39
2017-02-02T04:21:11.653Z,70.68
2017-02-02T04:22:11.649Z,70.64
2017-02-02T04:23:11.669Z,70.68
2017-02-02T04:24:11.278Z,70.68
2017-02-02T04:25:11.676Z,70.49
2017-02-02T04:26:11.688Z,70.55
2017-02-02T04:27:11.698Z,70.58
2017-02-02T04:28:11.706Z,70.49
2017-02-02T04:29:11.716Z,70.39
2017-02-02T04:30:11.730Z,70.49
2017-02-02T04:31:11.738Z,70.39
2017-02-02T04:32:11.747Z,70.49
2017-02-02T04:33:11.756Z,70.45
2017-02-02T04:34:11.767Z,70.36
2017-02-02T04:35:11.779Z,70.07
2017-02-02T04:36:11.783Z,70.45
2017-02-02T04:37:11.799Z,70.3
2017-02-02T04:38:11.803Z,70.17
2017-02-02T04:39:11.813Z,70.36
2017-02-02T04:40:11.827Z,70.55
2017-02-02T04:41:11.837Z,70.3
2017-02-02T04:42:11.846Z,70.26
2017-02-02T04:43:11.853Z,70.39
2017-02-02T04:44:11.898Z,70.45
2017-02-02T04:45:11.881Z,70.64
2017-02-02T04:46:11.887Z,70.87
2017-02-02T04:47:11.891Z,70.78
2017-02-02T04:48:11.900Z,70.74
2017-02-02T04:49:11.912Z,70.74
2017-02-02T04:50:11.921Z,70.87
2017-02-02T04:51:11.933Z,70.83
2017-02-02T04:52:11.939Z,70.83
2017-02-02T04:53:11.957Z,70.78
2017-02-02T04:54:11.962Z,70.87
2017-02-02T04:55:11.971Z,70.87
2017-02-02T04:56:11.984Z,70.78
2017-02-02T04:57:11.992Z,70.87
2017-02-02T04:58:11.997Z,70.87
2017-02-02T04:59:12.013Z,70.97
2017-02-02T05:00:12.019Z,70.87
2017-02-02T05:01:12.029Z,71.06
2017-02-02T05:02:11.641Z,70.58
2017-02-02T05:03:12.051Z,70.78
2017-02-02T05:04:12.056Z,70.78
2017-02-02T05:05:12.071Z,70.97
2017-02-02T05:06:12.074Z,70.97
2017-02-02T05:07:12.082Z,70.78
2017-02-02T05:08:12.095Z,70.78
2017-02-02T05:09:12.103Z,70.87
2017-02-02T05:10:12.115Z,70.78
2017-02-02T05:11:12.137Z,70.78
2017-02-02T05:12:12.132Z,70.78
2017-02-02T05:13:12.145Z,70.87
2017-02-02T05:14:12.158Z,70.97
2017-02-02T05:15:12.159Z,70.87
2017-02-02T05:16:12.175Z,70.78
2017-02-02T05:17:12.183Z,70.87
2017-02-02T05:18:12.198Z,70.87
2017-02-02T05:19:11.808Z,70.87
2017-02-02T05:20:12.208Z,70.87
2017-02-02T05:21:12.219Z,70.78
2017-02-02T05:22:12.230Z,70.78
2017-02-02T05:23:12.240Z,70.49
2017-02-02T05:24:12.248Z,70.58
2017-02-02T05:25:12.268Z,70.87
2017-02-02T05:26:11.874Z,70.97
2017-02-02T05:27:12.278Z,70.97
2017-02-02T05:28:12.289Z,70.87
2017-02-02T05:29:12.302Z,70.97
2017-02-02T05:30:12.302Z,70.87
2017-02-02T05:31:12.317Z,70.68
2017-02-02T05:32:11.932Z,70.87
2017-02-02T05:33:12.337Z,71.15
2017-02-02T05:34:12.345Z,71.34
2017-02-02T05:35:11.961Z,70.97
2017-02-02T05:36:12.372Z,71.44
2017-02-02T05:37:12.375Z,71.44
2017-02-02T05:38:12.385Z,71.25
2017-02-02T05:39:12.390Z,71.34
2017-02-02T05:40:12.402Z,71.25
2017-02-02T05:41:12.420Z,71.34
2017-02-02T05:42:12.428Z,71.15
2017-02-02T05:43:12.433Z,71.25
2017-02-02T05:44:12.440Z,71.25
2017-02-02T05:45:12.452Z,70.87
2017-02-02T05:46:12.468Z,70.87
2017-02-02T05:47:12.473Z,70.78
2017-02-02T05:48:12.085Z,70.68
2017-02-02T05:49:12.490Z,71.44
2017-02-02T05:50:12.500Z,71.34
2017-02-02T05:51:12.517Z,71.44
2017-02-02T05:52:12.128Z,71.25
2017-02-02T05:53:12.531Z,71.15
2017-02-02T05:54:12.536Z,71.25
2017-02-02T05:55:12.549Z,71.25
2017-02-02T05:56:12.559Z,70.97
2017-02-02T05:57:12.575Z,71.34
2017-02-02T05:58:12.587Z,70.97
2017-02-02T05:59:12.194Z,71.06
2017-02-02T06:00:12.208Z,70.97
2017-02-02T06:01:12.606Z,71.15
2017-02-02T06:02:12.616Z,71.06
2017-02-02T06:03:12.627Z,71.15
2017-02-02T06:04:12.638Z,71.15
2017-02-02T06:05:12.647Z,71.25
2017-02-02T06:06:12.655Z,70.87
2017-02-02T06:07:12.674Z,70.97
2017-02-02T06:08:12.679Z,70.97
2017-02-02T06:09:12.685Z,71.62
2017-02-02T06:10:12.697Z,71.44
2017-02-02T06:11:12.705Z,71.53
2017-02-02T06:12:12.717Z,71.44
2017-02-02T06:13:12.722Z,71.44
2017-02-02T06:14:12.743Z,71.34
2017-02-02T06:15:12.747Z,71.44
2017-02-02T06:16:12.764Z,71.44
2017-02-02T06:17:12.768Z,71.34
2017-02-02T06:18:12.775Z,71.53
2017-02-02T06:19:12.782Z,71.53
2017-02-02T06:20:12.792Z,71.44
2017-02-02T06:21:12.414Z,71.44
2017-02-02T06:22:12.815Z,71.53
2017-02-02T06:23:12.828Z,71.72
2017-02-02T06:24:12.831Z,71.81
2017-02-02T06:25:12.844Z,71.72
2017-02-02T06:26:12.855Z,71.91
2017-02-02T06:27:12.873Z,72.1
2017-02-02T06:28:12.872Z,72.1
2017-02-02T06:29:12.489Z,71.91
2017-02-02T06:30:12.890Z,71.91
2017-02-02T06:31:12.902Z,72
2017-02-02T06:32:12.913Z,71.72
2017-02-02T06:33:12.923Z,71.62
2017-02-02T06:34:12.933Z,71.62
2017-02-02T06:35:12.940Z,71.81
2017-02-02T06:36:12.962Z,71.91
2017-02-02T06:37:12.961Z,71.91
2017-02-02T06:38:12.585Z,71.72
2017-02-02T06:39:12.979Z,71.72
2017-02-02T06:40:12.598Z,71.72
2017-02-02T06:41:13.004Z,71.62
2017-02-02T06:42:13.012Z,71.81
2017-02-02T06:43:13.018Z,71.72
2017-02-02T06:44:13.033Z,71.91
2017-02-02T06:45:13.044Z,72
2017-02-02T06:46:13.050Z,71.62
2017-02-02T06:47:13.062Z,71.81
2017-02-02T06:48:12.673Z,71.62
2017-02-02T06:49:13.080Z,71.91
2017-02-02T06:50:13.088Z,71.72
2017-02-02T06:51:13.100Z,72.1
2017-02-02T06:52:13.107Z,72
2017-02-02T06:53:13.122Z,72.1
2017-02-02T06:54:13.129Z,72.48
2017-02-02T06:55:13.137Z,72.77
2017-02-02T06:56:13.157Z,72.48
2017-02-02T06:57:13.158Z,72.48
2017-02-02T06:58:13.171Z,72.67
2017-02-02T06:59:13.177Z,72.48
2017-02-02T07:00:13.187Z,72.57
2017-02-02T07:01:13.201Z,72.71
2017-02-02T07:02:13.207Z,72.52
2017-02-02T07:03:13.216Z,72.71
2017-02-02T07:04:13.226Z,72.52
2017-02-02T07:05:13.235Z,72.71
2017-02-02T07:06:13.249Z,72.61
2017-02-02T07:07:13.258Z,72.71
2017-02-02T07:08:13.271Z,72.52
2017-02-02T07:09:13.282Z,72.71
2017-02-02T07:10:13.292Z,72.71
2017-02-02T07:11:13.300Z,72.61
2017-02-02T07:12:13.307Z,72.33
2017-02-02T07:13:13.319Z,72.33
2017-02-02T07:14:13.335Z,72.14
2017-02-02T07:15:13.339Z,72.14
2017-02-02T07:16:13.342Z,72.14
2017-02-02T07:17:13.356Z,72.33
2017-02-02T07:18:13.375Z,72.14
2017-02-02T07:19:13.378Z,72.33
2017-02-02T07:20:13.386Z,72.52
2017-02-02T07:21:13.398Z,72.33
2017-02-02T07:22:13.406Z,72.33
2017-02-02T07:23:13.418Z,72.14
2017-02-02T07:24:13.429Z,72.23
2017-02-02T07:25:13.437Z,72.33
2017-02-02T07:26:13.445Z,72.14
2017-02-02T07:27:13.455Z,72.33
2017-02-02T07:28:13.466Z,72.33
2017-02-02T07:29:13.489Z,72.42
2017-02-02T07:30:13.488Z,72.42
2017-02-02T07:31:13.496Z,72.42
2017-02-02T07:32:13.507Z,72.42
2017-02-02T07:33:13.540Z,72.42
2017-02-02T07:34:13.530Z,72.23
2017-02-02T07:35:13.541Z,72.23
2017-02-02T07:36:13.555Z,72.42
2017-02-02T07:37:13.179Z,72.33
2017-02-02T07:38:13.575Z,71.95
2017-02-02T07:39:13.597Z,72.23
2017-02-02T07:40:13.595Z,72.23
2017-02-02T07:41:13.607Z,72.04
2017-02-02T07:42:13.220Z,71.76
2017-02-02T07:43:13.627Z,72.04
2017-02-02T07:44:13.638Z,71.95
2017-02-02T07:45:13.636Z,71.95
2017-02-02T07:46:13.651Z,72.04
2017-02-02T07:47:13.660Z,72.23
2017-02-02T07:48:13.669Z,72.14
2017-02-02T07:49:13.686Z,72.14
2017-02-02T07:50:13.697Z,72.23
2017-02-02T07:51:13.319Z,72.33
2017-02-02T07:52:13.721Z,72.42
2017-02-02T07:53:13.720Z,72.42
2017-02-02T07:54:13.742Z,72.33
2017-02-02T07:55:13.743Z,72.33
2017-02-02T07:56:13.777Z,72.14
2017-02-02T07:57:13.765Z,72.14
2017-02-02T07:58:13.772Z,71.95
2017-02-02T07:59:13.782Z,71.57
2017-02-02T08:00:13.791Z,71.57
2017-02-02T08:01:13.800Z,71.76
2017-02-02T08:02:13.813Z,72.04
2017-02-02T08:03:13.827Z,71.95
2017-02-02T08:04:13.832Z,71.66
2017-02-02T08:05:13.843Z,71.76
2017-02-02T08:06:13.863Z,71.76
2017-02-02T08:07:13.867Z,71.76
2017-02-02T08:08:13.880Z,71.95
2017-02-02T08:09:13.490Z,71.57
2017-02-02T08:10:13.897Z,71.95
2017-02-02T08:11:13.910Z,71.85
2017-02-02T08:12:13.924Z,71.57
2017-02-02T08:13:13.934Z,71.85
2017-02-02T08:14:13.940Z,71.85
2017-02-02T08:15:13.947Z,71.57
2017-02-02T08:16:13.959Z,71.57
2017-02-02T08:17:13.964Z,71.66
2017-02-02T08:18:13.983Z,71.66
2017-02-02T08:19:13.983Z,71.85
2017-02-02T08:20:13.995Z,71.76
2017-02-02T08:21:14.009Z,71.66
2017-02-02T08:22:13.621Z,71.66
2017-02-02T08:23:14.027Z,71.85
2017-02-02T08:24:14.037Z,71.76
2017-02-02T08:25:14.047Z,71.95
2017-02-02T08:26:14.059Z,71.76
2017-02-02T08:27:14.069Z,71.95
2017-02-02T08:28:14.085Z,71.95
2017-02-02T08:29:14.085Z,71.95
2017-02-02T08:30:13.705Z,71.76
2017-02-02T08:31:14.118Z,71.76
2017-02-02T08:32:14.126Z,71.85
2017-02-02T08:33:14.133Z,71.66
2017-02-02T08:34:14.141Z,71.85
2017-02-02T08:35:14.147Z,72.04
2017-02-02T08:36:14.158Z,72.14
2017-02-02T08:37:14.169Z,71.85
2017-02-02T08:38:14.179Z,72.04
2017-02-02T08:39:13.799Z,71.85
2017-02-02T08:40:14.200Z,71.85
2017-02-02T08:41:14.211Z,72.14
2017-02-02T08:42:13.826Z,71.95
2017-02-02T08:43:14.234Z,72.23
2017-02-02T08:44:13.849Z,71.95
2017-02-02T08:45:13.860Z,71.95
2017-02-02T08:46:14.266Z,71.76
2017-02-02T08:47:14.275Z,71.95
2017-02-02T08:48:14.285Z,71.76
2017-02-02T08:49:14.298Z,71.95
2017-02-02T08:50:14.306Z,71.85
2017-02-02T08:51:14.314Z,71.76
2017-02-02T08:52:14.329Z,71.85
2017-02-02T08:53:14.336Z,71.66
2017-02-02T08:54:14.349Z,71.66
2017-02-02T08:55:14.357Z,71.76
2017-02-02T08:56:14.372Z,71.76
2017-02-02T08:57:14.378Z,71.85
2017-02-02T08:58:14.387Z,72.04
2017-02-02T08:59:14.403Z,71.85
2017-02-02T09:00:14.409Z,71.76
2017-02-02T09:01:14.416Z,72.14
2017-02-02T09:02:14.432Z,71.76
2017-02-02T09:03:14.438Z,71.95
2017-02-02T09:04:14.450Z,71.95
2017-02-02T09:05:14.457Z,71.95
2017-02-02T09:06:14.468Z,72.04
2017-02-02T09:07:14.483Z,71.85
2017-02-02T09:08:14.493Z,71.66
2017-02-02T09:09:14.504Z,71.76
2017-02-02T09:10:14.511Z,71.85
2017-02-02T09:11:14.521Z,71.85
2017-02-02T09:12:14.535Z,71.85
2017-02-02T09:13:14.547Z,71.85
2017-02-02T09:14:14.549Z,71.95
2017-02-02T09:15:14.561Z,71.76
2017-02-02T09:16:14.569Z,71.76
2017-02-02T09:17:14.584Z,72.14
2017-02-02T09:18:14.200Z,72.23
2017-02-02T09:19:14.218Z,72.04
2017-02-02T09:20:14.614Z,71.76
2017-02-02T09:21:14.625Z,72.04
2017-02-02T09:22:14.639Z,71.85
2017-02-02T09:23:14.645Z,71.85
2017-02-02T09:24:14.655Z,71.85
2017-02-02T09:25:14.665Z,71.76
2017-02-02T09:26:14.677Z,71.85
2017-02-02T09:27:14.689Z,71.66
2017-02-02T09:28:14.698Z,71.95
2017-02-02T09:29:14.709Z,71.76
2017-02-02T09:30:14.716Z,72.04
2017-02-02T09:31:14.727Z,71.95
2017-02-02T09:32:14.740Z,72.23
2017-02-02T09:33:14.749Z,72.42
2017-02-02T09:34:14.762Z,72.33
2017-02-02T09:35:14.771Z,72.52
2017-02-02T09:36:14.780Z,72.42
2017-02-02T09:37:14.790Z,72.33
2017-02-02T09:38:14.807Z,72.52
2017-02-02T09:39:14.813Z,72.23
2017-02-02T09:40:14.822Z,72.42
2017-02-02T09:41:14.832Z,72.52
2017-02-02T09:42:14.846Z,72.52
2017-02-02T09:43:14.856Z,72.33
2017-02-02T09:44:14.867Z,72.33
2017-02-02T09:45:14.874Z,72.42
2017-02-02T09:46:14.883Z,72.33
2017-02-02T09:47:14.924Z,72.33
2017-02-02T09:48:14.909Z,72.33
2017-02-02T09:49:14.918Z,72.04
2017-02-02T09:50:14.933Z,72.14
2017-02-02T09:51:14.941Z,72.14
2017-02-02T09:52:14.959Z,72.23
2017-02-02T09:53:14.962Z,72.04
2017-02-02T09:54:14.970Z,72.14
2017-02-02T09:55:14.981Z,72.14
2017-02-02T09:56:14.989Z,72.14
2017-02-02T09:57:14.999Z,72.23
2017-02-02T09:58:15.037Z,72.61
2017-02-02T09:59:15.023Z,72.8
2017-02-02T10:00:15.034Z,72.89
2017-02-02T10:01:15.043Z,72.55
2017-02-02T10:02:15.057Z,72.14
2017-02-02T10:03:14.670Z,72.36
2017-02-02T10:04:15.089Z,72.33
2017-02-02T10:05:14.690Z,72.45
2017-02-02T10:06:14.702Z,72.17
2017-02-02T10:07:15.134Z,72.55
2017-02-02T10:08:15.117Z,72.36
2017-02-02T10:09:15.128Z,72.45
2017-02-02T10:10:15.139Z,72.36
2017-02-02T10:11:15.146Z,72.36
2017-02-02T10:12:15.163Z,72.45
2017-02-02T10:13:15.170Z,72.45
2017-02-02T10:14:15.176Z,72.45
2017-02-02T10:15:15.189Z,72.45
2017-02-02T10:16:15.199Z,72.45
2017-02-02T10:17:15.218Z,72.17
2017-02-02T10:18:15.224Z,71.7
2017-02-02T10:19:15.236Z,71.8
2017-02-02T10:20:15.245Z,71.89
2017-02-02T10:21:15.258Z,71.89
2017-02-02T10:22:15.271Z,71.89
2017-02-02T10:23:15.277Z,71.89
2017-02-02T10:24:15.290Z,71.7
2017-02-02T10:25:15.295Z,71.7
2017-02-02T10:26:15.310Z,71.7
2017-02-02T10:27:15.323Z,71.98
2017-02-02T10:28:15.330Z,72.08
2017-02-02T10:29:15.340Z,72.08
2017-02-02T10:30:15.359Z,71.8
2017-02-02T10:31:15.364Z,72.17
2017-02-02T10:32:15.377Z,72.08
2017-02-02T10:33:15.386Z,71.7
2017-02-02T10:34:15.004Z,71.89
2017-02-02T10:35:15.015Z,71.8
2017-02-02T10:36:15.420Z,71.8
2017-02-02T10:37:15.029Z,72.17
2017-02-02T10:38:15.044Z,71.98
2017-02-02T10:39:15.059Z,71.89
2017-02-02T10:40:15.468Z,71.7
2017-02-02T10:41:15.077Z,71.7
2017-02-02T10:42:15.088Z,71.89
2017-02-02T10:43:15.099Z,71.8
2017-02-02T10:44:15.110Z,71.89
2017-02-02T10:45:15.121Z,71.7
2017-02-02T10:46:15.526Z,71.89
2017-02-02T10:47:15.537Z,72.02
2017-02-02T10:48:15.548Z,72.3
2017-02-02T10:49:15.563Z,72.11
2017-02-02T10:50:15.570Z,72.11
2017-02-02T10:51:15.580Z,72.02
2017-02-02T10:52:15.594Z,71.64
2017-02-02T10:53:15.605Z,72.3
2017-02-02T10:54:15.613Z,71.55
2017-02-02T10:55:15.623Z,72.11
2017-02-02T10:56:15.240Z,71.64
2017-02-02T10:57:15.645Z,71.55
2017-02-02T10:58:15.662Z,71.55
2017-02-02T10:59:15.673Z,71.55
2017-02-02T11:00:15.681Z,72.11
2017-02-02T11:01:15.691Z,71.92
2017-02-02T11:02:15.703Z,71.45
2017-02-02T11:03:15.719Z,71.55
2017-02-02T11:04:15.723Z,71.36
2017-02-02T11:05:15.736Z,71.07
2017-02-02T11:06:15.747Z,71.36
2017-02-02T11:07:15.759Z,71.45
2017-02-02T11:08:15.769Z,71.45
2017-02-02T11:09:15.783Z,71.26
2017-02-02T11:10:15.792Z,71.26
2017-02-02T11:11:15.804Z,71.64
2017-02-02T11:12:15.816Z,71.64
2017-02-02T11:13:15.828Z,71.36
2017-02-02T11:14:15.838Z,71.36
2017-02-02T11:15:15.850Z,71.73
2017-02-02T11:16:15.859Z,71.55
2017-02-02T11:17:15.878Z,71.26
2017-02-02T11:18:15.882Z,71.26
2017-02-02T11:19:15.895Z,71.26
2017-02-02T11:20:15.907Z,71.17
2017-02-02T11:21:15.917Z,71.26
2017-02-02T11:22:15.929Z,71.07
2017-02-02T11:23:15.938Z,71.45
2017-02-02T11:24:15.956Z,71.26
2017-02-02T11:25:15.962Z,71.17
2017-02-02T11:26:15.975Z,71.26
2017-02-02T11:27:15.983Z,71.07
2017-02-02T11:28:15.997Z,71.26
2017-02-02T11:29:16.011Z,71.39
2017-02-02T11:30:16.022Z,71.39
2017-02-02T11:31:16.032Z,71.48
2017-02-02T11:32:16.042Z,71.01
2017-02-02T11:33:16.058Z,71.2
2017-02-02T11:34:16.064Z,70.92
2017-02-02T11:35:16.078Z,71.11
2017-02-02T11:36:16.087Z,70.54
2017-02-02T11:37:16.101Z,70.44
2017-02-02T11:38:16.115Z,70.54
2017-02-02T11:39:16.124Z,70.82
2017-02-02T11:40:16.137Z,70.44
2017-02-02T11:41:16.152Z,70.63
2017-02-02T11:42:16.165Z,70.73
2017-02-02T11:43:16.175Z,70.63
2017-02-02T11:44:16.186Z,70.82
2017-02-02T11:45:16.201Z,70.73
2017-02-02T11:46:16.208Z,70.82
2017-02-02T11:47:16.214Z,70.73
2017-02-02T11:48:16.233Z,70.73
2017-02-02T11:49:16.284Z,70.73
2017-02-02T11:50:16.254Z,70.73
2017-02-02T11:51:16.263Z,70.54
2017-02-02T11:52:16.277Z,70.82
2017-02-02T11:53:16.299Z,70.25
2017-02-02T11:54:16.323Z,70.63
2017-02-02T11:55:16.317Z,70.63
2017-02-02T11:56:16.327Z,70.38
2017-02-02T11:57:16.337Z,70.1
2017-02-02T11:58:16.345Z,70.15
2017-02-02T11:59:16.371Z,70.29
2017-02-02T12:00:16.370Z,70.29
2017-02-02T12:01:16.383Z,70.38
2017-02-02T12:02:16.392Z,70.38
2017-02-02T12:03:16.408Z,69.81
2017-02-02T12:04:16.430Z,70.29
2017-02-02T12:05:16.429Z,70.19
2017-02-02T12:06:16.056Z,70
2017-02-02T12:07:16.451Z,70.67
2017-02-02T12:08:16.075Z,70.19
2017-02-02T12:09:16.506Z,70
2017-02-02T12:10:16.503Z,69.34
2017-02-02T12:11:16.507Z,69.53
2017-02-02T12:12:16.518Z,69.15
2017-02-02T12:13:16.528Z,69.62
2017-02-02T12:14:16.544Z,69.15
2017-02-02T12:15:16.553Z,69.43
2017-02-02T12:16:16.573Z,69.15
2017-02-02T12:17:16.585Z,69.43
2017-02-02T12:18:16.599Z,69.18
2017-02-02T12:19:16.608Z,69.27
2017-02-02T12:20:16.617Z,69.15
2017-02-02T12:21:16.633Z,69.27
2017-02-02T12:22:16.638Z,68.9
2017-02-02T12:23:16.657Z,68.9
2017-02-02T12:24:16.667Z,68.8
2017-02-02T12:25:16.676Z,69.27
2017-02-02T12:26:16.687Z,68.9
2017-02-02T12:27:16.701Z,68.9
2017-02-02T12:28:16.710Z,68.99
2017-02-02T12:29:16.724Z,68.9
2017-02-02T12:30:16.736Z,68.9
2017-02-02T12:31:16.754Z,68.9
2017-02-02T12:32:16.764Z,68.9
2017-02-02T12:33:16.779Z,69.75
2017-02-02T12:34:16.788Z,69.09
2017-02-02T12:35:16.806Z,69.09
2017-02-02T12:36:16.811Z,68.8
2017-02-02T12:37:16.824Z,68.9
2017-02-02T12:38:16.842Z,68.9
2017-02-02T12:39:16.848Z,68.9
2017-02-02T12:40:16.868Z,68.9
2017-02-02T12:41:16.878Z,69.75
2017-02-02T12:42:16.890Z,69.09
2017-02-02T12:43:16.901Z,68.99
2017-02-02T12:44:16.920Z,69.56
2017-02-02T12:45:16.933Z,69.18
2017-02-02T12:46:16.942Z,69.09
2017-02-02T12:47:16.951Z,68.99
2017-02-02T12:48:16.970Z,68.9
2017-02-02T12:49:16.976Z,68.8
2017-02-02T12:50:16.995Z,68.99
2017-02-02T12:51:17.005Z,68.9
2017-02-02T12:52:17.015Z,68.9
2017-02-02T12:53:17.028Z,68.9
2017-02-02T12:54:17.043Z,69.09
2017-02-02T12:55:17.052Z,69.18
2017-02-02T12:56:16.675Z,69.09
2017-02-02T12:57:17.082Z,68.8